Time;durP1;ratioP1;P1;durP2;ratioP2;P2;SDS_P1;SDS_P2;PMS_P1;PMS_P2;Temp;Humidity;BMP_temperature;BMP_pressure;BME280_temperature;BME280_humidity;BME280_pressure;Samples;Min_cycle;Max_cycle;Signal;HPM_P1;HPM_P2
2021/08/29 00:00:26;;;;;;;4.70;3.28;;;;;;;;;;5056364;28;20066;-58
2021/08/29 00:02:52;;;;;;;4.50;2.40;;;;;;;;;;5057563;28;20036;-58
2021/08/29 00:05:20;;;;;;;4.82;3.17;;;;;;;;;;5057176;28;20032;-58
2021/08/29 00:07:46;;;;;;;4.97;3.22;;;;;;;;;;5057426;28;20039;-58
2021/08/29 00:10:12;;;;;;;4.38;3.15;;;;;;;;;;5057400;28;20029;-58
2021/08/29 00:12:38;;;;;;;4.35;2.60;;;;;;;;;;5057404;28;20036;-58
2021/08/29 00:15:05;;;;;;;5.35;3.28;;;;;;;;;;5056866;28;20359;-58
2021/08/29 00:17:31;;;;;;;5.65;2.85;;;;;;;;;;5057557;28;20071;-58
2021/08/29 00:19:57;;;;;;;4.65;2.85;;;;;;;;;;5055707;28;20021;-58
2021/08/29 00:22:26;;;;;;;5.13;3.35;;;;;;;;;;5057720;28;20409;-58
2021/08/29 00:24:52;;;;;;;3.95;2.67;;;;;;;;;;5056888;28;20482;-58
2021/08/29 00:27:18;;;;;;;3.05;2.63;;;;;;;;;;5057039;28;20421;-58
2021/08/29 00:29:46;;;;;;;3.30;2.63;;;;;;;;;;5055271;28;20041;-58
2021/08/29 00:32:13;;;;;;;6.15;2.95;;;;;;;;;;5057294;28;20037;-58
2021/08/29 00:34:39;;;;;;;4.13;3.05;;;;;;;;;;5056257;28;20037;-58
2021/08/29 00:37:05;;;;;;;4.40;3.45;;;;;;;;;;5056882;28;20086;-58
2021/08/29 00:39:31;;;;;;;4.80;3.00;;;;;;;;;;5056663;28;20036;-57
2021/08/29 00:41:58;;;;;;;3.63;2.80;;;;;;;;;;5056836;28;20116;-58
2021/08/29 00:44:24;;;;;;;4.60;3.05;;;;;;;;;;5056760;28;20033;-58
2021/08/29 00:46:50;;;;;;;4.57;3.03;;;;;;;;;;5056804;28;20036;-58
2021/08/29 00:49:16;;;;;;;3.55;2.80;;;;;;;;;;5056000;28;20143;-58
2021/08/29 00:51:42;;;;;;;3.92;3.00;;;;;;;;;;5057205;28;20029;-58
2021/08/29 00:54:08;;;;;;;4.22;3.65;;;;;;;;;;5056541;28;20036;-58
2021/08/29 00:56:34;;;;;;;6.00;3.67;;;;;;;;;;5056555;28;20021;-58
2021/08/29 00:59:00;;;;;;;3.50;2.78;;;;;;;;;;5055281;28;20044;-58
2021/08/29 01:01:37;;;;;;;4.80;3.28;;;;;;;;;;5056694;28;20044;-58
2021/08/29 01:04:05;;;;;;;4.07;3.00;;;;;;;;;;5055678;28;20025;-58
2021/08/29 01:06:36;;;;;;;6.20;3.83;;;;;;;;;;5056556;28;20463;-58
2021/08/29 01:09:06;;;;;;;4.47;2.70;;;;;;;;;;5056151;28;20422;-57
2021/08/29 01:11:32;;;;;;;5.70;2.83;;;;;;;;;;5056340;28;20116;-58
2021/08/29 01:13:59;;;;;;;6.60;3.08;;;;;;;;;;5056155;28;20095;-58
2021/08/29 01:16:29;;;;;;;4.78;3.45;;;;;;;;;;5056195;28;20477;-58
2021/08/29 01:18:57;;;;;;;4.57;3.00;;;;;;;;;;5056414;28;20025;-58
2021/08/29 01:21:25;;;;;;;5.40;3.97;;;;;;;;;;5056050;28;20032;-58
2021/08/29 01:23:53;;;;;;;5.75;4.18;;;;;;;;;;5056513;28;20055;-58
2021/08/29 01:26:35;;;;;;;7.07;3.85;;;;;;;;;;5055947;28;20025;-58
2021/08/29 01:29:03;;;;;;;5.47;3.88;;;;;;;;;;5055911;28;20076;-58
2021/08/29 01:31:30;;;;;;;4.47;2.95;;;;;;;;;;5056125;28;20072;-58
2021/08/29 01:34:07;;;;;;;4.47;3.55;;;;;;;;;;5056326;28;20075;-58
2021/08/29 01:36:33;;;;;;;5.75;3.45;;;;;;;;;;5056634;28;20478;-58
2021/08/29 01:39:01;;;;;;;4.15;3.65;;;;;;;;;;5055730;28;20021;-58
2021/08/29 01:41:27;;;;;;;4.50;2.97;;;;;;;;;;5055758;28;20068;-58
2021/08/29 01:43:55;;;;;;;5.57;3.58;;;;;;;;;;5055306;28;20108;-58
2021/08/29 01:46:22;;;;;;;5.25;4.07;;;;;;;;;;5054673;28;20028;-58
2021/08/29 01:48:48;;;;;;;8.20;4.75;;;;;;;;;;5055536;28;20099;-58
2021/08/29 01:51:14;;;;;;;7.13;3.83;;;;;;;;;;5055742;28;20029;-58
2021/08/29 01:53:40;;;;;;;4.63;3.67;;;;;;;;;;5054825;28;20139;-58
2021/08/29 01:56:07;;;;;;;4.47;3.22;;;;;;;;;;5054370;28;20067;-58
2021/08/29 01:58:36;;;;;;;5.55;4.03;;;;;;;;;;5054377;28;20467;-58
2021/08/29 02:01:05;;;;;;;5.05;3.85;;;;;;;;;;5055890;28;20033;-58
2021/08/29 02:03:31;;;;;;;7.05;3.60;;;;;;;;;;5054323;28;20033;-58
2021/08/29 02:06:01;;;;;;;4.05;3.33;;;;;;;;;;5055313;28;20032;-58
2021/08/29 02:08:27;;;;;;;5.03;3.72;;;;;;;;;;5053823;28;20024;-58
2021/08/29 02:10:58;;;;;;;5.35;3.90;;;;;;;;;;5055218;28;20375;-58
2021/08/29 02:13:26;;;;;;;8.93;5.22;;;;;;;;;;5055418;28;20053;-58
2021/08/29 02:15:56;;;;;;;3.78;3.38;;;;;;;;;;5054120;28;20031;-58
2021/08/29 02:18:24;;;;;;;3.97;3.50;;;;;;;;;;5055434;28;20029;-58
2021/08/29 02:20:50;;;;;;;5.35;3.55;;;;;;;;;;5054627;28;20409;-58
2021/08/29 02:23:17;;;;;;;5.20;4.07;;;;;;;;;;5054436;28;20025;-58
2021/08/29 02:25:46;;;;;;;6.15;4.38;;;;;;;;;;5054769;28;20029;-58
2021/08/29 02:28:13;;;;;;;4.70;3.10;;;;;;;;;;5054120;28;20049;-58
2021/08/29 02:30:40;;;;;;;4.40;3.10;;;;;;;;;;5055690;28;20040;-58
2021/08/29 02:33:06;;;;;;;4.03;3.38;;;;;;;;;;5054760;28;20113;-58
2021/08/29 02:35:32;;;;;;;4.25;3.30;;;;;;;;;;5053517;28;20029;-58
2021/08/29 02:37:58;;;;;;;4.90;3.92;;;;;;;;;;5054713;28;20029;-58
2021/08/29 02:40:24;;;;;;;4.80;3.28;;;;;;;;;;5054574;28;20021;-58
2021/08/29 02:42:50;;;;;;;5.32;3.15;;;;;;;;;;5055116;28;20410;-58
2021/08/29 02:45:17;;;;;;;3.83;3.20;;;;;;;;;;5054856;28;20056;-58
2021/08/29 02:47:43;;;;;;;7.55;3.35;;;;;;;;;;5054540;28;20025;-58
2021/08/29 02:50:10;;;;;;;4.22;3.10;;;;;;;;;;5053669;28;20033;-58
2021/08/29 02:52:37;;;;;;;4.88;4.25;;;;;;;;;;5054098;28;20025;-58
2021/08/29 02:55:05;;;;;;;4.20;3.58;;;;;;;;;;5036542;28;20367;-58
2021/08/29 02:57:33;;;;;;;5.18;3.75;;;;;;;;;;5054844;28;20104;-58
2021/08/29 02:59:59;;;;;;;5.57;4.53;;;;;;;;;;5054246;28;20063;-58
2021/08/29 03:02:25;;;;;;;5.28;3.25;;;;;;;;;;5054468;28;20021;-58
2021/08/29 03:04:54;;;;;;;4.57;3.85;;;;;;;;;;5054035;28;20028;-58
2021/08/29 03:07:20;;;;;;;5.10;4.05;;;;;;;;;;5053891;28;20103;-58
2021/08/29 03:09:46;;;;;;;4.70;3.95;;;;;;;;;;5053137;28;20374;-58
2021/08/29 03:12:12;;;;;;;5.40;3.75;;;;;;;;;;5054290;28;20497;-58
2021/08/29 03:14:42;;;;;;;6.18;4.43;;;;;;;;;;5053701;28;20062;-58
2021/08/29 03:17:08;;;;;;;5.30;4.30;;;;;;;;;;5053953;28;20052;-58
2021/08/29 03:19:35;;;;;;;6.22;4.60;;;;;;;;;;5053922;28;20029;-58
2021/08/29 03:22:04;;;;;;;7.63;4.65;;;;;;;;;;5054417;28;20402;-57
2021/08/29 03:24:30;;;;;;;4.25;3.85;;;;;;;;;;5036432;28;20426;-57
2021/08/29 03:26:56;;;;;;;6.53;4.43;;;;;;;;;;5053629;28;20451;-58
2021/08/29 03:29:25;;;;;;;5.85;4.40;;;;;;;;;;5053282;28;20402;-58
2021/08/29 03:31:51;;;;;;;5.55;4.40;;;;;;;;;;5052106;28;20028;-58
2021/08/29 03:34:18;;;;;;;5.55;4.40;;;;;;;;;;5051774;28;20033;-58
2021/08/29 03:36:44;;;;;;;5.20;4.70;;;;;;;;;;5052571;28;20488;-57
2021/08/29 03:39:13;;;;;;;7.25;5.40;;;;;;;;;;5053675;28;20019;-57
2021/08/29 03:41:41;;;;;;;5.50;4.53;;;;;;;;;;5053123;28;20032;-58
2021/08/29 03:44:10;;;;;;;6.70;4.25;;;;;;;;;;5053553;28;20079;-58
2021/08/29 03:46:36;;;;;;;6.13;3.95;;;;;;;;;;5053495;28;20375;-58
2021/08/29 03:49:03;;;;;;;5.43;4.45;;;;;;;;;;5053495;28;20463;-58
2021/08/29 03:51:30;;;;;;;4.85;3.92;;;;;;;;;;5054019;28;20053;-58
2021/08/29 03:53:56;;;;;;;5.88;4.85;;;;;;;;;;5052352;28;20025;-58
2021/08/29 03:56:22;;;;;;;5.68;4.35;;;;;;;;;;5053538;28;20040;-58
2021/08/29 03:58:48;;;;;;;5.20;4.63;;;;;;;;;;5053498;28;20032;-58
2021/08/29 04:01:14;;;;;;;5.97;4.15;;;;;;;;;;5053778;28;20424;-58
2021/08/29 04:03:40;;;;;;;13.85;4.55;;;;;;;;;;5053650;28;20087;-57
2021/08/29 04:06:08;;;;;;;5.63;3.70;;;;;;;;;;5053488;28;20040;-58
2021/08/29 04:08:38;;;;;;;4.57;4.15;;;;;;;;;;5053392;28;20029;-58
2021/08/29 04:11:04;;;;;;;5.85;4.38;;;;;;;;;;5053386;28;20033;-58
2021/08/29 04:13:31;;;;;;;9.98;4.90;;;;;;;;;;5052460;28;20029;-58
2021/08/29 04:15:57;;;;;;;6.32;4.82;;;;;;;;;;5053303;28;20075;-58
2021/08/29 04:18:24;;;;;;;4.60;3.97;;;;;;;;;;5053040;28;20032;-58
2021/08/29 04:20:50;;;;;;;5.18;4.70;;;;;;;;;;5053289;28;20112;-58
2021/08/29 04:23:17;;;;;;;5.45;4.00;;;;;;;;;;5052778;28;20356;-58
2021/08/29 04:25:43;;;;;;;6.32;4.20;;;;;;;;;;5052549;28;20344;-58
2021/08/29 04:28:09;;;;;;;6.65;4.53;;;;;;;;;;5052964;28;20059;-58
2021/08/29 04:30:35;;;;;;;6.07;4.93;;;;;;;;;;5053061;28;20032;-58
2021/08/29 04:33:01;;;;;;;5.47;4.40;;;;;;;;;;5053501;28;20033;-58
2021/08/29 04:35:27;;;;;;;5.55;4.30;;;;;;;;;;5053923;28;20060;-58
2021/08/29 04:37:56;;;;;;;6.10;4.85;;;;;;;;;;5053789;28;20037;-58
2021/08/29 04:40:22;;;;;;;4.45;3.83;;;;;;;;;;5051846;28;20543;-58
2021/08/29 04:42:48;;;;;;;8.38;5.03;;;;;;;;;;5053339;28;20487;-59
2021/08/29 04:45:14;;;;;;;5.00;4.18;;;;;;;;;;5055769;28;20029;-58
2021/08/29 04:47:40;;;;;;;5.53;4.65;;;;;;;;;;5057315;28;20032;-58
2021/08/29 04:50:06;;;;;;;7.28;5.25;;;;;;;;;;5056481;28;20021;-58
2021/08/29 04:52:32;;;;;;;4.38;3.88;;;;;;;;;;5056004;28;20024;-59
2021/08/29 04:54:58;;;;;;;6.75;4.88;;;;;;;;;;5056737;28;20052;-58
2021/08/29 04:57:24;;;;;;;5.72;4.50;;;;;;;;;;5056646;28;20029;-58
2021/08/29 04:59:50;;;;;;;5.60;4.40;;;;;;;;;;5057333;28;20394;-58
2021/08/29 05:02:16;;;;;;;5.50;3.92;;;;;;;;;;5056583;28;20124;-58
2021/08/29 05:04:42;;;;;;;7.05;5.20;;;;;;;;;;5056328;28;20064;-58
2021/08/29 05:07:11;;;;;;;6.88;5.70;;;;;;;;;;5056398;28;20090;-58
2021/08/29 05:09:37;;;;;;;6.60;5.53;;;;;;;;;;5056711;28;20105;-58
2021/08/29 05:12:03;;;;;;;6.03;4.97;;;;;;;;;;5056600;28;20072;-58
2021/08/29 05:14:29;;;;;;;6.82;5.07;;;;;;;;;;5056320;28;20135;-58
2021/08/29 05:16:55;;;;;;;8.00;6.28;;;;;;;;;;5054976;28;20053;-58
2021/08/29 05:19:21;;;;;;;5.30;4.47;;;;;;;;;;5054561;28;20028;-58
2021/08/29 05:21:47;;;;;;;8.05;5.80;;;;;;;;;;5056268;28;20053;-58
2021/08/29 05:24:13;;;;;;;7.93;4.95;;;;;;;;;;5056057;28;20071;-57
2021/08/29 05:26:39;;;;;;;5.55;4.75;;;;;;;;;;5056003;28;20037;-58
2021/08/29 05:29:05;;;;;;;7.93;5.82;;;;;;;;;;5038172;28;20048;-58
2021/08/29 05:31:31;;;;;;;6.60;5.93;;;;;;;;;;5054840;28;20029;-58
2021/08/29 05:33:57;;;;;;;4.90;4.40;;;;;;;;;;5055500;28;20033;-58
2021/08/29 05:36:23;;;;;;;7.60;5.03;;;;;;;;;;5054569;28;20029;-57
2021/08/29 05:38:49;;;;;;;6.43;5.13;;;;;;;;;;5055771;28;20025;-57
2021/08/29 05:41:15;;;;;;;5.22;4.63;;;;;;;;;;5054229;28;20028;-57
2021/08/29 05:43:41;;;;;;;6.28;4.95;;;;;;;;;;5054767;28;20056;-58
2021/08/29 05:46:09;;;;;;;7.15;6.18;;;;;;;;;;5054308;28;20467;-58
2021/08/29 05:48:35;;;;;;;6.38;5.10;;;;;;;;;;5055718;28;20078;-57
2021/08/29 05:51:02;;;;;;;5.78;4.95;;;;;;;;;;5054649;28;20025;-58
2021/08/29 05:53:28;;;;;;;5.93;5.25;;;;;;;;;;5056199;28;20116;-57
2021/08/29 05:55:55;;;;;;;4.55;3.17;;;;;;;;;;5053076;28;20041;-58
2021/08/29 05:58:21;;;;;;;5.97;4.40;;;;;;;;;;5054783;28;20059;-58
2021/08/29 06:00:47;;;;;;;4.60;3.88;;;;;;;;;;5055485;28;20029;-57
2021/08/29 06:03:13;;;;;;;5.93;4.28;;;;;;;;;;5055289;28;20029;-58
2021/08/29 06:05:39;;;;;;;5.45;3.85;;;;;;;;;;5055080;28;20502;-58
2021/08/29 06:08:05;;;;;;;5.13;3.95;;;;;;;;;;5055338;28;20036;-58
2021/08/29 06:10:31;;;;;;;4.63;3.45;;;;;;;;;;5055286;28;20029;-58
2021/08/29 06:12:57;;;;;;;4.50;3.35;;;;;;;;;;5055757;28;20021;-58
2021/08/29 06:15:23;;;;;;;5.18;3.60;;;;;;;;;;5053835;28;20027;-57
2021/08/29 06:17:49;;;;;;;6.07;3.35;;;;;;;;;;5055134;28;20025;-58
2021/08/29 06:20:16;;;;;;;4.53;3.40;;;;;;;;;;5055009;28;20025;-58
2021/08/29 06:22:42;;;;;;;4.00;3.33;;;;;;;;;;5055769;28;20352;-58
2021/08/29 06:25:08;;;;;;;4.30;3.25;;;;;;;;;;5055575;28;20028;-58
2021/08/29 06:27:34;;;;;;;3.88;3.13;;;;;;;;;;5053629;28;20028;-58
2021/08/29 06:30:00;;;;;;;3.63;2.55;;;;;;;;;;5055661;28;20041;-57
2021/08/29 06:32:26;;;;;;;4.53;2.83;;;;;;;;;;5055287;28;20047;-57
2021/08/29 06:34:52;;;;;;;4.32;3.25;;;;;;;;;;5054736;28;20029;-57
2021/08/29 06:37:18;;;;;;;3.50;2.72;;;;;;;;;;5054734;28;20021;-58
2021/08/29 06:39:44;;;;;;;4.15;3.00;;;;;;;;;;5054644;28;20036;-58
2021/08/29 06:42:21;;;;;;;2.75;2.38;;;;;;;;;;5053549;28;20029;-58
2021/08/29 06:44:50;;;;;;;3.65;2.33;;;;;;;;;;5054828;28;20041;-58
2021/08/29 06:47:16;;;;;;;3.45;2.42;;;;;;;;;;5054446;28;20033;-58
2021/08/29 06:49:42;;;;;;;3.85;2.45;;;;;;;;;;5054554;28;20059;-58
2021/08/29 06:52:13;;;;;;;2.55;2.03;;;;;;;;;;5055560;28;20021;-59
2021/08/29 06:54:40;;;;;;;4.00;2.38;;;;;;;;;;5054601;28;20426;-59
2021/08/29 06:57:06;;;;;;;4.55;2.80;;;;;;;;;;5054136;28;20033;-60
2021/08/29 07:00:01;;;;;;;2.40;1.83;;;;;;;;;;5054617;28;20029;-60
2021/08/29 07:02:49;;;;;;;2.53;1.65;;;;;;;;;;5053938;28;20359;-59
2021/08/29 07:05:31;;;;;;;2.67;1.70;;;;;;;;;;5053899;28;20029;-59
2021/08/29 07:07:57;;;;;;;2.25;1.40;;;;;;;;;;5054072;28;20029;-59
2021/08/29 07:13:30;;;;;;;3.00;1.77;;;;;;;;;;5045607;28;20032;-59
2021/08/29 07:15:59;;;;;;;2.30;1.30;;;;;;;;;;5053580;28;20092;-60
2021/08/29 07:18:28;;;;;;;1.98;1.33;;;;;;;;;;5053823;28;20021;-59
2021/08/29 07:20:54;;;;;;;2.47;1.33;;;;;;;;;;5053825;28;20388;-57
2021/08/29 07:23:20;;;;;;;2.55;1.70;;;;;;;;;;5053850;28;20025;-58
2021/08/29 07:25:49;;;;;;;2.42;1.50;;;;;;;;;;5054377;28;20063;-58
2021/08/29 07:28:15;;;;;;;2.60;1.73;;;;;;;;;;5053784;28;20052;-58
2021/08/29 07:30:41;;;;;;;2.92;1.73;;;;;;;;;;5053520;28;20029;-58
2021/08/29 07:33:07;;;;;;;3.05;1.85;;;;;;;;;;5053195;28;20037;-58
2021/08/29 07:35:36;;;;;;;2.33;1.20;;;;;;;;;;5054121;28;20021;-58
2021/08/29 07:38:08;;;;;;;2.53;1.20;;;;;;;;;;5053748;28;20078;-58
2021/08/29 07:40:43;;;;;;;2.03;1.48;;;;;;;;;;5054290;28;20074;-58
2021/08/29 07:43:21;;;;;;;3.25;2.20;;;;;;;;;;5053207;28;20466;-59
2021/08/29 07:45:53;;;;;;;2.47;1.67;;;;;;;;;;5037425;28;20025;-58
2021/08/29 07:48:22;;;;;;;2.25;1.40;;;;;;;;;;5052087;28;20028;-58
2021/08/29 07:50:48;;;;;;;4.35;1.30;;;;;;;;;;5052592;28;20029;-59
2021/08/29 07:53:32;;;;;;;2.63;1.48;;;;;;;;;;5053962;28;20033;-60
2021/08/29 07:56:38;;;;;;;2.15;1.33;;;;;;;;;;5037409;28;20474;-59
2021/08/29 07:59:06;;;;;;;2.40;1.48;;;;;;;;;;5051564;28;20036;-59
2021/08/29 08:01:32;;;;;;;3.33;1.98;;;;;;;;;;5053480;28;20475;-59
2021/08/29 08:04:02;;;;;;;3.05;1.33;;;;;;;;;;5053251;28;20029;-60
2021/08/29 08:06:37;;;;;;;2.65;1.75;;;;;;;;;;5053084;28;20072;-59
2021/08/29 08:09:06;;;;;;;2.67;1.58;;;;;;;;;;5053670;28;20025;-59
2021/08/29 08:11:32;;;;;;;2.67;1.65;;;;;;;;;;5051882;28;20032;-59
2021/08/29 08:13:58;;;;;;;2.67;1.65;;;;;;;;;;5053022;28;20035;-60
2021/08/29 08:16:33;;;;;;;2.65;1.17;;;;;;;;;;5053413;28;20039;-59
2021/08/29 08:19:06;;;;;;;2.00;1.25;;;;;;;;;;5054747;28;20029;-59
2021/08/29 08:21:38;;;;;;;2.17;1.33;;;;;;;;;;5057712;28;20029;-59
2021/08/29 08:24:07;;;;;;;2.47;1.27;;;;;;;;;;5040857;28;20059;-59
2021/08/29 08:26:45;;;;;;;2.60;1.60;;;;;;;;;;5057093;28;20126;-59
2021/08/29 08:29:13;;;;;;;1.85;1.33;;;;;;;;;;5055346;28;20407;-59
2021/08/29 08:31:40;;;;;;;2.08;1.15;;;;;;;;;;5055586;28;20451;-59
2021/08/29 08:34:09;;;;;;;1.50;0.95;;;;;;;;;;5056618;28;20036;-59
2021/08/29 08:36:35;;;;;;;1.90;0.88;;;;;;;;;;5055713;28;20111;-59
2021/08/29 08:39:01;;;;;;;2.00;1.23;;;;;;;;;;5056279;28;20064;-60
2021/08/29 08:41:27;;;;;;;1.77;1.08;;;;;;;;;;5056959;28;20028;-60
2021/08/29 08:43:54;;;;;;;2.03;1.02;;;;;;;;;;5055680;28;20033;-60
2021/08/29 08:46:20;;;;;;;2.30;1.15;;;;;;;;;;5056841;28;20036;-59
2021/08/29 08:48:49;;;;;;;1.60;0.95;;;;;;;;;;5056838;28;20048;-59
2021/08/29 08:51:17;;;;;;;1.25;0.57;;;;;;;;;;5055285;28;20025;-59
2021/08/29 08:53:44;;;;;;;1.75;0.75;;;;;;;;;;5057018;28;20029;-59
2021/08/29 08:56:10;;;;;;;1.67;0.88;;;;;;;;;;5056604;28;20367;-59
2021/08/29 08:58:40;;;;;;;1.13;0.70;;;;;;;;;;5056949;28;20029;-59
2021/08/29 09:01:08;;;;;;;0.90;0.50;;;;;;;;;;5057108;28;20028;-59
2021/08/29 09:03:38;;;;;;;0.93;0.52;;;;;;;;;;5055810;28;20033;-59
2021/08/29 09:06:05;;;;;;;1.20;0.60;;;;;;;;;;5056578;28;20029;-59
2021/08/29 09:08:32;;;;;;;0.93;0.40;;;;;;;;;;5056511;28;20025;-59
2021/08/29 09:10:58;;;;;;;0.93;0.60;;;;;;;;;;5055700;28;20064;-59
2021/08/29 09:13:24;;;;;;;3.63;0.80;;;;;;;;;;5055427;28;20029;-59
2021/08/29 09:15:50;;;;;;;1.67;0.70;;;;;;;;;;5056783;28;20086;-59
2021/08/29 09:18:16;;;;;;;1.58;0.85;;;;;;;;;;5056025;28;20028;-59
2021/08/29 09:20:42;;;;;;;1.60;0.85;;;;;;;;;;5056172;28;20032;-59
2021/08/29 09:23:13;;;;;;;0.88;0.45;;;;;;;;;;5056676;28;20120;-59
2021/08/29 09:25:41;;;;;;;1.42;0.70;;;;;;;;;;5056264;28;20029;-60
2021/08/29 09:28:11;;;;;;;0.98;0.52;;;;;;;;;;5055680;28;20116;-60
2021/08/29 09:30:40;;;;;;;1.13;0.57;;;;;;;;;;5055339;28;20056;-60
2021/08/29 09:33:06;;;;;;;1.05;0.45;;;;;;;;;;5055974;28;20036;-60
2021/08/29 09:35:34;;;;;;;0.65;0.32;;;;;;;;;;5055836;28;20078;-59
2021/08/29 09:38:01;;;;;;;0.75;0.40;;;;;;;;;;5055872;28;20029;-60
2021/08/29 09:40:29;;;;;;;1.00;0.50;;;;;;;;;;5055995;28;20033;-59
2021/08/29 09:42:57;;;;;;;0.75;0.30;;;;;;;;;;5056276;28;20025;-59
2021/08/29 09:45:29;;;;;;;1.05;0.60;;;;;;;;;;5055720;28;20087;-59
2021/08/29 09:48:00;;;;;;;1.10;0.60;;;;;;;;;;5055586;28;20025;-59
2021/08/29 09:50:29;;;;;;;0.95;0.50;;;;;;;;;;5054358;28;20463;-60
2021/08/29 09:53:04;;;;;;;0.63;0.20;;;;;;;;;;5054662;28;20462;-60
2021/08/29 09:55:56;;;;;;;0.43;0.25;;;;;;;;;;5056106;28;20459;-59
2021/08/29 09:58:31;;;;;;;0.95;0.45;;;;;;;;;;5051937;28;20124;-60
2021/08/29 10:01:14;;;;;;;1.45;0.43;;;;;;;;;;5055395;28;20119;-60
2021/08/29 10:03:45;;;;;;;0.13;0.10;;;;;;;;;;5055287;28;20030;-60
2021/08/29 10:06:43;;;;;;;0.80;0.40;;;;;;;;;;5055580;28;20024;-59
2021/08/29 10:09:12;;;;;;;0.57;0.20;;;;;;;;;;5055681;28;20025;-60
2021/08/29 10:11:46;;;;;;;0.30;0.20;;;;;;;;;;5055072;28;20032;-59
2021/08/29 10:14:13;;;;;;;1.00;0.38;;;;;;;;;;5055426;28;20413;-59
2021/08/29 10:16:39;;;;;;;0.57;0.30;;;;;;;;;;5055535;28;20387;-60
2021/08/29 10:19:05;;;;;;;0.73;0.43;;;;;;;;;;5053802;28;20021;-60
2021/08/29 10:21:32;;;;;;;0.68;0.30;;;;;;;;;;5055028;28;20435;-59
2021/08/29 10:23:58;;;;;;;0.47;0.20;;;;;;;;;;5054489;28;20025;-59
2021/08/29 10:26:25;;;;;;;0.57;0.28;;;;;;;;;;5053935;28;20040;-59
2021/08/29 10:29:06;;;;;;;0.82;0.40;;;;;;;;;;5053573;28;20060;-59
2021/08/29 10:31:36;;;;;;;0.38;0.20;;;;;;;;;;5053499;28;20036;-60
2021/08/29 10:34:05;;;;;;;2.25;0.30;;;;;;;;;;5053391;28;20035;-60
2021/08/29 10:36:35;;;;;;;1.02;0.50;;;;;;;;;;5054636;28;20032;-60
2021/08/29 10:39:01;;;;;;;2.55;2.00;;;;;;;;;;5054760;28;20367;-60
2021/08/29 10:41:27;;;;;;;1.13;0.52;;;;;;;;;;5054787;28;20443;-61
2021/08/29 10:43:53;;;;;;;3.42;2.90;;;;;;;;;;5055033;28;20413;-59
2021/08/29 10:46:29;;;;;;;4.50;2.80;;;;;;;;;;5054068;28;20120;-59
2021/08/29 10:48:55;;;;;;;5.00;3.72;;;;;;;;;;5037566;28;20048;-60
2021/08/29 10:51:28;;;;;;;4.00;3.42;;;;;;;;;;5054676;28;20033;-60
2021/08/29 10:53:56;;;;;;;4.53;4.10;;;;;;;;;;5054412;28;20474;-59
2021/08/29 10:59:37;;;;;;;4.22;3.55;;;;;;;;;;5049293;28;20356;-58
2021/08/29 11:02:25;;;;;;;6.28;5.40;;;;;;;;;;5052869;28;20029;-58
2021/08/29 11:05:07;;;;;;;7.60;4.85;;;;;;;;;;5054113;28;20029;-59
2021/08/29 11:07:56;;;;;;;4.50;4.10;;;;;;;;;;5054080;28;20029;-58
2021/08/29 11:10:58;;;;;;;5.70;4.80;;;;;;;;;;5052799;28;20021;-58
2021/08/29 11:13:34;;;;;;;6.53;5.35;;;;;;;;;;5053870;28;20024;-59
2021/08/29 11:16:19;;;;;;;5.70;5.10;;;;;;;;;;5054128;28;20020;-59
2021/08/29 11:19:03;;;;;;;5.30;4.75;;;;;;;;;;5054199;28;20023;-59
2021/08/29 11:21:51;;;;;;;4.93;4.45;;;;;;;;;;5052289;28;20037;-59
2021/08/29 11:24:40;;;;;;;5.90;5.30;;;;;;;;;;5054124;28;20036;-60
2021/08/29 11:27:32;;;;;;;5.25;4.03;;;;;;;;;;5043562;28;20048;-60
2021/08/29 11:30:27;;;;;;;5.15;4.13;;;;;;;;;;5052161;28;20056;-59
2021/08/29 11:33:17;;;;;;;7.28;4.43;;;;;;;;;;5053260;28;20052;-60
2021/08/29 11:35:51;;;;;;;5.03;4.55;;;;;;;;;;5053773;28;20486;-60
2021/08/29 11:38:21;;;;;;;6.50;4.45;;;;;;;;;;5053522;28;20025;-60
2021/08/29 11:41:01;;;;;;;4.75;4.13;;;;;;;;;;5052509;28;20037;-60
2021/08/29 11:43:27;;;;;;;5.75;4.93;;;;;;;;;;5053069;28;20033;-60
2021/08/29 11:46:03;;;;;;;5.07;4.25;;;;;;;;;;5053685;28;20079;-60
2021/08/29 11:48:32;;;;;;;5.50;4.93;;;;;;;;;;5054508;28;20033;-59
2021/08/29 11:51:03;;;;;;;5.13;4.68;;;;;;;;;;5054199;28;20032;-61
2021/08/29 11:53:30;;;;;;;5.03;4.53;;;;;;;;;;5053385;28;20029;-60
2021/08/29 11:55:57;;;;;;;6.50;4.28;;;;;;;;;;5052439;28;20071;-59
2021/08/29 11:58:23;;;;;;;5.82;4.30;;;;;;;;;;5053693;28;20100;-60
2021/08/29 12:00:50;;;;;;;5.60;4.35;;;;;;;;;;5053670;28;20154;-59
2021/08/29 12:03:17;;;;;;;6.28;4.85;;;;;;;;;;5054069;28;20569;-60
2021/08/29 12:05:58;;;;;;;4.63;4.13;;;;;;;;;;5052233;28;20382;-59
2021/08/29 12:08:35;;;;;;;7.35;3.63;;;;;;;;;;5054271;28;20347;-59
2021/08/29 12:11:11;;;;;;;4.55;3.95;;;;;;;;;;5052533;28;20056;-59
2021/08/29 12:13:38;;;;;;;5.60;4.25;;;;;;;;;;5052361;28;20028;-60
2021/08/29 12:16:05;;;;;;;4.60;3.45;;;;;;;;;;5051774;28;20351;-59
2021/08/29 12:19:00;;;;;;;5.78;3.47;;;;;;;;;;5053283;28;20021;-60
2021/08/29 12:21:35;;;;;;;3.85;3.22;;;;;;;;;;5053728;28;20025;-60
2021/08/29 12:24:11;;;;;;;3.30;2.42;;;;;;;;;;5052994;28;20368;-59
2021/08/29 12:26:38;;;;;;;3.90;3.05;;;;;;;;;;5053255;28;20418;-59
2021/08/29 12:29:26;;;;;;;4.43;3.33;;;;;;;;;;5051672;28;20090;-59
2021/08/29 12:32:11;;;;;;;3.25;2.72;;;;;;;;;;5051714;28;20025;-59
2021/08/29 12:34:40;;;;;;;4.18;3.08;;;;;;;;;;5051757;28;20124;-59
2021/08/29 12:37:12;;;;;;;4.75;3.83;;;;;;;;;;5053167;28;20044;-59
2021/08/29 12:40:16;;;;;;;5.15;3.90;;;;;;;;;;5052088;28;20028;-59
2021/08/29 12:42:46;;;;;;;4.63;4.13;;;;;;;;;;5052858;28;20025;-59
2021/08/29 12:45:16;;;;;;;4.97;3.93;;;;;;;;;;5051910;28;20033;-59
2021/08/29 12:48:03;;;;;;;;;;;;;;;;;;;;;
2021/08/29 12:50:46;;;;;;;;;;;;;;;;;;;;;
2021/08/29 12:53:25;;;;;;;4.65;3.15;;;;;;;;;;5053702;28;20025;-60
2021/08/29 12:56:05;;;;;;;4.65;3.63;;;;;;;;;;5052791;28;20067;-59
2021/08/29 12:58:57;;;;;;;5.17;3.93;;;;;;;;;;5053079;28;20108;-59
2021/08/29 13:01:54;;;;;;;4.40;2.85;;;;;;;;;;5052318;28;20266;-59
2021/08/29 13:04:38;;;;;;;4.72;3.88;;;;;;;;;;5053305;28;20033;-57
2021/08/29 13:07:07;;;;;;;4.63;3.63;;;;;;;;;;5057358;28;20036;-58
2021/08/29 13:10:19;;;;;;;;;;;;;;;;;;;;;
2021/08/29 13:13:14;;;;;;;5.72;3.45;;;;;;;;;;5034630;28;20403;-60
2021/08/29 13:15:49;;;;;;;5.75;3.33;;;;;;;;;;5035200;28;20036;-60
2021/08/29 13:18:26;;;;;;;4.43;3.50;;;;;;;;;;5056042;28;20031;-59
2021/08/29 13:21:09;;;;;;;4.75;3.75;;;;;;;;;;5056201;28;20532;-59
2021/08/29 13:23:35;;;;;;;3.20;2.80;;;;;;;;;;5056077;28;20387;-60
2021/08/29 13:26:07;;;;;;;4.45;3.40;;;;;;;;;;5055325;28;20037;-60
2021/08/29 13:28:35;;;;;;;6.45;3.50;;;;;;;;;;5056357;28;20124;-60
2021/08/29 13:31:04;;;;;;;4.65;3.88;;;;;;;;;;5054943;28;20033;-60
2021/08/29 13:33:36;;;;;;;5.20;4.35;;;;;;;;;;5055772;28;20122;-59
2021/08/29 13:36:09;;;;;;;5.93;4.32;;;;;;;;;;5054700;28;20037;-59
2021/08/29 13:39:19;;;;;;;5.03;3.85;;;;;;;;;;5055970;28;20429;-59
2021/08/29 13:41:42;;;;;;;8.05;4.45;;;;;;;;;;5055312;28;20029;-59
2021/08/29 13:44:13;;;;;;;5.75;3.83;;;;;;;;;;5056025;28;20102;-59
2021/08/29 13:46:39;;;;;;;5.15;3.65;;;;;;;;;;5055205;28;20049;-59
2021/08/29 13:49:08;;;;;;;3.97;3.08;;;;;;;;;;5055870;28;20013;-60
2021/08/29 13:51:37;;;;;;;4.60;3.90;;;;;;;;;;5055888;28;20053;-59
2021/08/29 13:54:02;;;;;;;4.53;3.33;;;;;;;;;;5055429;28;20028;-59
2021/08/29 13:56:29;;;;;;;5.22;4.18;;;;;;;;;;5054558;28;20116;-60
2021/08/29 13:58:55;;;;;;;6.20;2.95;;;;;;;;;;5055573;28;20029;-60
2021/08/29 14:01:23;;;;;;;5.65;3.88;;;;;;;;;;5055617;28;20025;-59
2021/08/29 14:03:52;;;;;;;4.20;3.10;;;;;;;;;;5054895;28;20058;-59
2021/08/29 14:06:21;;;;;;;5.43;3.83;;;;;;;;;;5053425;28;20037;-59
2021/08/29 14:08:50;;;;;;;4.60;3.42;;;;;;;;;;5054234;28;20033;-60
2021/08/29 14:11:19;;;;;;;4.13;3.25;;;;;;;;;;5055486;28;20096;-59
2021/08/29 14:13:45;;;;;;;6.72;4.00;;;;;;;;;;5055338;28;20052;-59
2021/08/29 14:16:11;;;;;;;3.90;3.08;;;;;;;;;;5054457;28;20037;-59
2021/08/29 14:18:40;;;;;;;4.13;3.67;;;;;;;;;;5054859;28;20048;-59
2021/08/29 14:21:09;;;;;;;4.65;3.67;;;;;;;;;;5054622;28;20028;-60
2021/08/29 14:23:38;;;;;;;4.50;3.20;;;;;;;;;;5055635;28;20087;-59
2021/08/29 14:26:04;;;;;;;3.97;3.08;;;;;;;;;;5055584;28;20527;-59
2021/08/29 14:28:30;;;;;;;3.28;2.42;;;;;;;;;;5053532;28;20088;-59
2021/08/29 14:30:56;;;;;;;3.28;2.72;;;;;;;;;;5053992;28;20398;-60
2021/08/29 14:33:22;;;;;;;4.82;3.35;;;;;;;;;;5053805;28;20530;-60
2021/08/29 14:35:51;;;;;;;4.63;2.75;;;;;;;;;;5037189;28;20375;-59
2021/08/29 14:38:17;;;;;;;4.70;3.25;;;;;;;;;;5054178;28;20379;-59
2021/08/29 14:40:47;;;;;;;3.47;2.60;;;;;;;;;;5055403;28;20433;-59
2021/08/29 14:43:13;;;;;;;4.15;3.00;;;;;;;;;;5055176;28;20037;-59
2021/08/29 14:45:39;;;;;;;4.20;2.92;;;;;;;;;;5054956;28;20028;-60
2021/08/29 14:48:05;;;;;;;4.30;3.47;;;;;;;;;;5053934;28;20107;-60
2021/08/29 14:50:34;;;;;;;4.70;3.28;;;;;;;;;;5054752;28;20040;-60
2021/08/29 14:53:02;;;;;;;4.72;3.60;;;;;;;;;;5053564;28;20025;-60
2021/08/29 14:55:29;;;;;;;4.30;3.17;;;;;;;;;;5055032;28;20024;-59
2021/08/29 14:57:55;;;;;;;6.25;3.13;;;;;;;;;;5053521;28;20458;-59
2021/08/29 15:00:21;;;;;;;3.63;2.47;;;;;;;;;;5054428;28;20033;-59
2021/08/29 15:02:47;;;;;;;2.75;1.80;;;;;;;;;;5054611;28;20103;-59
2021/08/29 15:05:13;;;;;;;4.47;3.10;;;;;;;;;;5054740;28;20121;-59
2021/08/29 15:07:42;;;;;;;4.50;2.88;;;;;;;;;;5054305;28;20025;-59